Weather at James M Cox Dayton International Airport

Public forecast

Using degrees Fahrenheit for public forecast. Weather courtesy of forecast.io.

Current aviation weather report (METAR) for James M Cox Dayton International Airport

Retrieved 2021/03/01 19:56 UTC (58 minutes ago):

KDAY 011956Z 32022G28KT 10SM SCT039 SCT050 SCT250 07/M07 A3015 RMK AO2 PK WND 29031/1932 SLP216 T00671072

Aviation forecast (TAF) for James M Cox Dayton International Airport

Forecast is more than 6 hours old.

Retrieved 2021/03/01 12:22 UTC (9 hours ago):

TAF KDAY 011120Z 0112/0212 31012G20KT P6SM OVC015 FM011400 30012G20KT P6SM SCT250 FM011800 30016G26KT P6SM SCT250 FM020000 32010KT P6SM SKC FM020800 01005KT P6SM SKC